Time;durP1;ratioP1;P1;durP2;ratioP2;P2;SDS_P1;SDS_P2;PMS_P1;PMS_P2;Temp;Humidity;BMP_temperature;BMP_pressure;BME280_temperature;BME280_humidity;BME280_pressure;Samples;Min_cycle;Max_cycle;Signal;HPM_P1;HPM_P2
2023/01/03 00:02:17;;;;;;;0.10;0.10;;;;;;;5.52;100.00;102476.97;5006658;28;20113;-84
2023/01/03 00:04:42;;;;;;;0.10;0.10;;;;;;;5.33;100.00;102471.28;5024949;28;20253;-83
2023/01/03 00:07:08;;;;;;;0.10;0.10;;;;;;;5.38;100.00;102487.13;5017295;28;20042;-84
2023/01/03 00:09:33;;;;;;;0.10;0.10;;;;;;;5.37;100.00;102472.06;5020374;28;20457;-84
2023/01/03 00:14:43;;;;;;;0.10;0.10;;;;;;;5.34;100.00;102480.16;5017319;28;20079;-83
2023/01/03 00:17:09;;;;;;;0.10;0.10;;;;;;;5.21;100.00;102466.31;5008180;28;20041;-83
2023/01/03 00:19:38;;;;;;;0.10;0.10;;;;;;;5.44;100.00;102505.59;5020141;28;20029;-83
2023/01/03 00:22:04;;;;;;;0.10;0.10;;;;;;;5.49;100.00;102505.47;5006210;28;20464;-83
2023/01/03 00:24:29;;;;;;;0.10;0.10;;;;;;;5.33;100.00;102497.94;5016829;28;20040;-79
2023/01/03 00:26:55;;;;;;;0.10;0.10;;;;;;;5.34;100.00;102504.13;5018291;28;20116;-82
2023/01/03 00:29:20;;;;;;;0.10;0.10;;;;;;;5.23;100.00;102499.09;5018657;28;20356;-82
2023/01/03 00:31:45;;;;;;;0.10;0.10;;;;;;;5.31;100.00;102480.22;5002921;28;20033;-84
2023/01/03 00:34:11;;;;;;;0.10;0.10;;;;;;;5.10;100.00;102464.84;5004371;28;20029;-82
2023/01/03 00:36:37;;;;;;;0.20;0.20;;;;;;;5.34;100.00;102510.34;5003314;28;20026;-83
2023/01/03 00:39:03;;;;;;;0.10;0.10;;;;;;;5.24;100.00;102511.50;5023331;28;20033;-81
2023/01/03 00:41:29;;;;;;;0.10;0.10;;;;;;;5.14;100.00;102512.69;5004437;28;20651;-83
2023/01/03 00:43:54;;;;;;;0.10;0.10;;;;;;;4.83;100.00;102466.50;5014660;28;21542;-83
2023/01/03 00:46:20;;;;;;;0.10;0.10;;;;;;;5.02;100.00;102511.25;5014628;28;20037;-83
2023/01/03 00:48:45;;;;;;;0.10;0.10;;;;;;;4.93;100.00;102499.94;5000625;28;20025;-83
2023/01/03 00:51:32;;;;;;;0.13;0.13;;;;;;;4.96;100.00;102512.28;5017543;28;20452;-83
2023/01/03 00:53:58;;;;;;;0.10;0.10;;;;;;;4.78;100.00;102503.00;4999649;28;20053;-82
2023/01/03 00:56:26;;;;;;;0.10;0.10;;;;;;;4.71;100.00;102496.09;4995664;28;20051;-82
2023/01/03 00:58:51;;;;;;;0.10;0.10;;;;;;;4.72;100.00;102520.00;5014195;28;20396;-81
2023/01/03 01:01:22;;;;;;;0.10;0.10;;;;;;;4.40;100.00;102462.31;4997947;28;20021;-82
2023/01/03 01:03:50;;;;;;;0.10;0.10;;;;;;;4.68;100.00;102521.00;5013513;28;20348;-82
2023/01/03 01:06:24;;;;;;;0.10;0.10;;;;;;;4.65;100.00;102523.72;5015501;28;20471;-82
2023/01/03 01:08:50;;;;;;;0.20;0.20;;;;;;;4.33;100.00;102481.09;4997179;28;20460;-82
2023/01/03 01:11:16;;;;;;;0.10;0.10;;;;;;;4.62;100.00;102527.34;5016633;28;20033;-83
2023/01/03 01:13:42;;;;;;;0.10;0.10;;;;;;;4.56;100.00;102526.66;5012282;28;20036;-83
2023/01/03 01:16:12;;;;;;;0.10;0.10;;;;;;;4.24;100.00;102509.69;5017461;28;20029;-83
2023/01/03 01:18:39;;;;;;;0.10;0.10;;;;;;;4.28;100.00;102520.22;5011596;28;20018;-83
2023/01/03 01:21:10;;;;;;;0.13;0.13;;;;;;;4.36;100.00;102536.00;5011792;28;20495;-83
2023/01/03 01:23:37;;;;;;;0.10;0.10;;;;;;;4.28;100.00;102546.81;4997242;28;20029;-83
2023/01/03 01:26:03;;;;;;;0.10;0.10;;;;;;;4.18;100.00;102532.84;5012349;28;20799;-84
2023/01/03 01:28:29;;;;;;;0.10;0.10;;;;;;;4.01;100.00;102521.75;5011265;28;20525;-84
2023/01/03 01:30:57;;;;;;;0.10;0.10;;;;;;;4.01;100.00;102535.03;5012775;28;20021;-83
2023/01/03 01:33:22;;;;;;;0.10;0.10;;;;;;;4.02;100.00;102536.78;4995500;28;20040;-84
2023/01/03 01:35:48;;;;;;;0.20;0.20;;;;;;;4.21;100.00;102571.81;5016188;28;20496;-83
2023/01/03 01:38:13;;;;;;;0.10;0.10;;;;;;;4.07;100.00;102542.00;5002430;28;20469;-85
2023/01/03 01:40:38;;;;;;;0.10;0.10;;;;;;;4.03;100.00;102550.03;4999950;28;20057;-81
2023/01/03 01:46:12;;;;;;;0.10;0.10;;;;;;;4.28;100.00;102581.38;5011363;28;20553;-84
2023/01/03 01:48:37;;;;;;;0.10;0.10;;;;;;;4.02;100.00;102550.09;5015053;28;20033;-85
2023/01/03 01:51:03;;;;;;;0.10;0.10;;;;;;;3.90;100.00;102538.81;4995717;28;20036;-85
2023/01/03 01:53:33;;;;;;;0.10;0.10;;;;;;;4.21;100.00;102561.19;5000497;28;21382;-84
2023/01/03 01:56:12;;;;;;;0.10;0.10;;;;;;;4.44;100.00;102592.53;5015289;28;20037;-84
2023/01/03 01:58:39;;;;;;;0.20;0.20;;;;;;;4.20;100.00;102591.34;5013700;28;20391;-84
2023/01/03 02:01:14;;;;;;;0.10;0.10;;;;;;;4.28;100.00;102575.19;5015125;28;20039;-85
2023/01/03 02:03:41;;;;;;;0.10;0.10;;;;;;;3.74;100.00;102526.78;5019676;28;20479;-82
2023/01/03 02:06:08;;;;;;;0.10;0.10;;;;;;;4.18;100.00;102587.84;5016001;28;20394;-85
2023/01/03 02:08:34;;;;;;;0.13;0.13;;;;;;;3.83;100.00;102558.47;5015134;28;20049;-85
2023/01/03 02:11:08;;;;;;;0.10;0.10;;;;;;;3.83;100.00;102586.81;5017290;28;20141;-85
2023/01/03 02:14:26;;;;;;;0.10;0.10;;;;;;;3.85;100.00;102588.53;5014520;28;20036;-84
2023/01/03 02:17:16;;;;;;;0.10;0.10;;;;;;;3.70;100.00;102600.38;4975774;28;20384;-84
2023/01/03 02:20:15;;;;;;;0.10;0.10;;;;;;;3.48;100.00;102597.28;5019053;28;20472;-82
2023/01/03 02:23:05;;;;;;;0.20;0.20;;;;;;;3.27;100.00;102587.94;5022611;28;20039;-84
2023/01/03 02:25:47;;;;;;;0.20;0.20;;;;;;;3.13;100.00;102566.94;5020411;28;20021;-81
2023/01/03 02:28:55;;;;;;;0.20;0.20;;;;;;;3.40;100.00;102580.59;5004269;28;20030;-85
2023/01/03 02:31:47;;;;;;;0.20;0.20;;;;;;;3.23;100.00;102596.84;5025592;28;20528;-85
2023/01/03 02:34:45;;;;;;;0.10;0.10;;;;;;;3.23;100.00;102591.53;5022234;28;20113;-84
2023/01/03 02:37:44;;;;;;;0.10;0.10;;;;;;;3.31;100.00;102584.31;5020045;28;20048;-84
2023/01/03 02:40:23;;;;;;;0.20;0.20;;;;;;;3.19;100.00;102585.44;5024520;28;20083;-85
2023/01/03 02:43:04;;;;;;;0.10;0.10;;;;;;;2.92;100.00;102549.63;5023522;28;20040;-84
2023/01/03 02:45:58;;;;;;;0.20;0.20;;;;;;;3.09;100.00;102584.72;5008017;28;20400;-84
2023/01/03 02:48:52;;;;;;;0.15;0.15;;;;;;;3.11;100.00;102592.66;5021915;28;20040;-85
2023/01/03 02:51:26;;;;;;;0.17;0.17;;;;;;;2.81;100.00;102557.78;5020618;28;20150;-84
2023/01/03 02:53:51;;;;;;;0.22;0.22;;;;;;;2.89;100.00;102573.59;5006596;28;20029;-84
2023/01/03 02:56:23;;;;;;;0.10;0.10;;;;;;;2.87;100.00;102567.44;5007443;28;20239;-84
2023/01/03 02:58:54;;;;;;;0.15;0.15;;;;;;;2.88;100.00;102587.75;5017638;28;20037;-84
2023/01/03 03:01:20;;;;;;;0.20;0.20;;;;;;;2.73;100.00;102565.03;5033264;28;20029;-84
2023/01/03 03:03:45;;;;;;;0.20;0.20;;;;;;;2.76;100.00;102571.16;5018410;28;20029;-84
2023/01/03 03:06:22;;;;;;;0.20;0.20;;;;;;;2.72;100.00;102587.16;5022420;28;20069;-84
2023/01/03 03:08:48;;;;;;;0.20;0.20;;;;;;;2.78;100.00;102587.91;5018270;28;20021;-84
2023/01/03 03:14:06;;;;;;;;;;;;;;;2.64;100.00;102577.53;5016762;28;20168;-84
2023/01/03 03:16:47;;;;;;;0.10;0.10;;;;;;;2.57;100.00;102578.53;5022899;28;19913;-85
2023/01/03 03:24:48;;;;;;;0.20;0.20;;;;;;;2.13;100.00;102524.44;5020438;28;20079;-84
2023/01/03 03:24:52;;;;;;;0.20;0.20;;;;;;;2.35;100.00;102565.63;5026834;28;20068;-85
2023/01/03 03:30:07;;;;;;;0.10;0.10;;;;;;;2.23;100.00;102573.78;5019672;28;20094;-84
2023/01/03 03:32:33;;;;;;;0.10;0.10;;;;;;;1.97;100.00;102547.63;4999623;28;20125;-84
2023/01/03 03:35:01;;;;;;;0.20;0.20;;;;;;;2.10;100.00;102554.53;5020559;28;20376;-82
2023/01/03 03:37:28;;;;;;;0.20;0.20;;;;;;;1.92;100.00;102553.88;5004103;28;20033;-84
2023/01/03 03:45:49;;;;;;;0.20;0.20;;;;;;;2.08;100.00;102590.78;5012793;28;20530;-81
2023/01/03 03:48:25;;;;;;;0.20;0.20;;;;;;;1.99;100.00;102557.31;5021560;28;20526;-84
2023/01/03 03:50:54;;;;;;;0.20;0.20;;;;;;;1.97;100.00;102564.44;5003384;28;20071;-81
2023/01/03 03:53:23;;;;;;;0.20;0.20;;;;;;;2.08;100.00;102590.78;4999411;28;20067;-85
2023/01/03 03:55:48;;;;;;;0.20;0.20;;;;;;;2.05;100.00;102582.84;5033573;28;20021;-84
2023/01/03 03:58:33;;;;;;;0.20;0.20;;;;;;;1.73;100.00;102579.72;5015544;28;20787;-81
2023/01/03 04:00:59;;;;;;;0.20;0.20;;;;;;;1.92;100.00;102571.56;5020808;28;20079;-81
2023/01/03 04:03:25;;;;;;;0.20;0.20;;;;;;;1.92;100.00;102572.41;4995894;28;20030;-84
2023/01/03 04:06:00;;;;;;;0.20;0.20;;;;;;;2.12;100.00;102578.34;4997992;28;20385;-81
2023/01/03 04:08:26;;;;;;;0.20;0.20;;;;;;;2.16;100.00;102603.91;4996970;28;20034;-84
2023/01/03 04:10:51;;;;;;;0.20;0.20;;;;;;;1.82;100.00;102561.97;5015261;28;20093;-81
2023/01/03 04:13:16;;;;;;;0.20;0.20;;;;;;;1.84;100.00;102549.59;5009610;28;20076;-84
2023/01/03 04:15:42;;;;;;;0.20;0.20;;;;;;;2.09;100.00;102611.94;5014253;28;20021;-83
2023/01/03 04:18:07;;;;;;;0.20;0.20;;;;;;;1.87;100.00;102579.53;5003124;28;20072;-84
2023/01/03 04:20:32;;;;;;;0.20;0.20;;;;;;;1.75;100.00;102564.69;4998276;28;20213;-82
2023/01/03 04:22:58;;;;;;;0.20;0.20;;;;;;;1.42;100.00;102521.88;5019405;28;20052;-83
2023/01/03 04:25:23;;;;;;;0.20;0.20;;;;;;;1.97;100.00;102609.47;5013465;28;20040;-81
2023/01/03 04:27:49;;;;;;;0.20;0.20;;;;;;;2.00;100.00;102601.44;5019246;28;20033;-82
2023/01/03 04:30:14;;;;;;;0.20;0.20;;;;;;;1.79;100.00;102590.25;5016307;28;20088;-84
2023/01/03 04:32:39;;;;;;;0.20;0.20;;;;;;;1.77;100.00;102609.72;5014819;28;20041;-81
2023/01/03 04:35:05;;;;;;;0.20;0.20;;;;;;;1.88;100.00;102604.28;5003553;28;20339;-85
2023/01/03 04:37:31;;;;;;;0.20;0.20;;;;;;;1.94;100.00;102620.09;4996208;28;20029;-84
2023/01/03 04:39:56;;;;;;;0.20;0.20;;;;;;;1.85;100.00;102601.66;4999340;28;20064;-83
2023/01/03 04:45:06;;;;;;;0.20;0.20;;;;;;;1.87;100.00;102579.53;5016372;28;20045;-84
2023/01/03 04:47:31;;;;;;;0.20;0.20;;;;;;;1.94;100.00;102597.13;5015289;28;20033;-84
2023/01/03 04:49:57;;;;;;;0.20;0.20;;;;;;;1.72;100.00;102601.81;5016302;28;20033;-82
2023/01/03 04:52:22;;;;;;;0.10;0.10;;;;;;;1.62;100.00;102593.09;5015843;28;20029;-82
2023/01/03 04:54:47;;;;;;;0.20;0.20;;;;;;;1.68;100.00;102593.94;4998357;28;20022;-82
2023/01/03 04:57:13;;;;;;;0.13;0.13;;;;;;;1.84;100.00;102590.22;5014080;28;20076;-85
2023/01/03 04:59:38;;;;;;;0.20;0.20;;;;;;;1.77;100.00;102594.69;5017619;28;21129;-83
2023/01/03 05:02:03;;;;;;;0.20;0.20;;;;;;;1.59;100.00;102556.06;4999566;28;20059;-82
2023/01/03 05:04:29;;;;;;;0.20;0.20;;;;;;;1.76;100.00;102607.97;5012894;28;20488;-83
2023/01/03 05:06:55;;;;;;;0.10;0.10;;;;;;;1.08;100.00;102503.75;5015188;28;20566;-82
2023/01/03 05:09:20;;;;;;;0.20;0.20;;;;;;;1.58;100.00;102550.81;4999463;28;20412;-84
2023/01/03 05:11:45;;;;;;;0.28;0.28;;;;;;;1.86;100.00;102582.22;5016241;28;20480;-82
2023/01/03 05:14:11;;;;;;;0.20;0.20;;;;;;;1.79;100.00;102568.19;5015608;28;20033;-83
2023/01/03 05:16:36;;;;;;;0.13;0.13;;;;;;;1.78;100.00;102577.91;4993702;28;20134;-80
2023/01/03 05:19:02;;;;;;;0.20;0.20;;;;;;;2.22;100.00;102591.44;5014057;28;20040;-83
2023/01/03 05:26:58;;;;;;;0.20;0.20;;;;;;;2.29;100.00;102576.31;5013035;28;20452;-81
2023/01/03 05:29:25;;;;;;;0.20;0.20;;;;;;;2.29;100.00;102601.94;5017559;28;20499;-79
2023/01/03 05:31:52;;;;;;;0.20;0.20;;;;;;;2.02;100.00;102559.06;4997971;28;20120;-82
2023/01/03 05:34:18;;;;;;;0.25;0.25;;;;;;;2.36;100.00;102574.47;5002954;28;20036;-81
2023/01/03 05:36:46;;;;;;;0.20;0.20;;;;;;;1.98;100.00;102509.66;5013682;28;20033;-82
2023/01/03 05:39:11;;;;;;;0.20;0.20;;;;;;;2.47;100.00;102593.72;5006020;28;20499;-82
2023/01/03 05:44:21;;;;;;;0.20;0.20;;;;;;;2.68;100.00;102579.25;5019338;28;20079;-83
2023/01/03 05:46:46;;;;;;;0.20;0.20;;;;;;;2.82;100.00;102564.84;5015557;28;20038;-83
2023/01/03 05:49:11;;;;;;;0.20;0.20;;;;;;;3.03;100.00;102563.59;5012547;28;20376;-84
2023/01/03 05:51:37;;;;;;;0.20;0.20;;;;;;;3.22;100.00;102592.44;5004290;28;20049;-83
2023/01/03 05:54:02;;;;;;;0.20;0.20;;;;;;;2.94;100.00;102543.41;5022661;28;20030;-84
2023/01/03 05:56:29;;;;;;;0.20;0.20;;;;;;;2.88;100.00;102553.28;5009993;28;20129;-83
2023/01/03 05:58:55;;;;;;;0.20;0.20;;;;;;;3.24;100.00;102591.53;5013325;28;20044;-79
2023/01/03 06:01:20;;;;;;;0.25;0.25;;;;;;;2.92;100.00;102584.13;5018834;28;20034;-83
2023/01/03 06:03:47;;;;;;;0.20;0.20;;;;;;;3.18;100.00;102566.88;5018710;28;20029;-80
2023/01/03 06:06:13;;;;;;;0.20;0.20;;;;;;;3.32;100.00;102595.78;5016562;28;20516;-83
2023/01/03 06:08:39;;;;;;;0.20;0.20;;;;;;;2.68;100.00;102510.28;5022663;28;20048;-83
2023/01/03 06:11:06;;;;;;;0.20;0.20;;;;;;;2.96;100.00;102554.88;5025429;28;20026;-83
2023/01/03 06:13:31;;;;;;;0.13;0.13;;;;;;;3.07;100.00;102562.63;5025044;28;20029;-83
2023/01/03 06:18:49;;;;;;;0.20;0.20;;;;;;;2.78;100.00;102532.19;5019198;28;20033;-83
2023/01/03 06:21:14;;;;;;;0.20;0.20;;;;;;;2.78;100.00;102534.00;5018148;28;20034;-83
2023/01/03 06:23:40;;;;;;;0.10;0.10;;;;;;;2.96;100.00;102570.81;5020141;28;20029;-83
2023/01/03 06:26:05;;;;;;;0.20;0.20;;;;;;;2.61;100.00;102534.28;5022050;28;20537;-84
2023/01/03 06:28:30;;;;;;;0.20;0.20;;;;;;;2.66;100.00;102562.47;5021872;28;20029;-83
2023/01/03 06:30:56;;;;;;;0.10;0.10;;;;;;;2.59;100.00;102554.66;5016925;28;20112;-83
2023/01/03 06:33:21;;;;;;;0.20;0.20;;;;;;;2.79;100.00;102579.06;5014600;28;20051;-83
2023/01/03 06:35:46;;;;;;;0.10;0.10;;;;;;;2.58;100.00;102526.38;5024803;28;20072;-83
2023/01/03 06:38:12;;;;;;;0.10;0.10;;;;;;;2.87;100.00;102555.03;5024389;28;20060;-83
2023/01/03 06:40:37;;;;;;;0.20;0.20;;;;;;;2.56;100.00;102537.00;5012398;28;20032;-84
2023/01/03 06:43:02;;;;;;;0.20;0.20;;;;;;;2.91;100.00;102558.53;5021781;28;20053;-81
2023/01/03 06:53:41;;;;;;;0.20;0.20;;;;;;;3.06;100.00;102578.56;5019794;28;20521;-82
2023/01/03 06:56:07;;;;;;;0.20;0.20;;;;;;;2.74;100.00;102533.16;5015012;28;20383;-82
2023/01/03 06:58:33;;;;;;;0.20;0.20;;;;;;;3.08;100.00;102582.09;5015596;28;20025;-83
2023/01/03 07:01:03;;;;;;;0.20;0.20;;;;;;;2.98;100.00;102554.84;5025699;28;20025;-83
2023/01/03 07:03:30;;;;;;;0.20;0.20;;;;;;;2.90;100.00;102555.00;5013906;28;20037;-83
2023/01/03 07:05:55;;;;;;;0.20;0.20;;;;;;;2.69;100.00;102497.88;5016764;28;20033;-83
2023/01/03 07:08:20;;;;;;;0.13;0.13;;;;;;;2.83;100.00;102534.75;5020190;28;20553;-83
2023/01/03 07:10:46;;;;;;;0.20;0.20;;;;;;;2.75;100.00;102526.94;5007842;28;20487;-83
2023/01/03 07:15:55;;;;;;;0.20;0.20;;;;;;;2.75;100.00;102536.69;5015359;28;20530;-83
2023/01/03 07:18:20;;;;;;;0.20;0.20;;;;;;;2.92;100.00;102554.94;5021098;28;20045;-83
2023/01/03 07:20:46;;;;;;;0.10;0.10;;;;;;;2.99;100.00;102575.16;5008738;28;20061;-83
2023/01/03 07:23:12;;;;;;;0.17;0.17;;;;;;;3.08;100.00;102567.03;5012911;28;20112;-82
2023/01/03 07:25:40;;;;;;;0.20;0.20;;;;;;;2.96;100.00;102564.59;5020023;28;20025;-81
2023/01/03 07:28:13;;;;;;;0.20;0.20;;;;;;;3.16;100.00;102566.91;5018994;28;20246;-82
2023/01/03 07:30:40;;;;;;;0.20;0.20;;;;;;;2.76;100.00;102511.94;5020364;28;20025;-80
2023/01/03 07:33:08;;;;;;;0.20;0.20;;;;;;;2.88;100.00;102532.06;5024422;28;20036;-79
2023/01/03 07:35:34;;;;;;;0.20;0.20;;;;;;;3.15;100.00;102551.88;5018247;28;20384;-84
2023/01/03 07:38:00;;;;;;;0.20;0.20;;;;;;;3.25;100.00;102568.50;5021219;28;20692;-82
2023/01/03 07:40:25;;;;;;;0.20;0.20;;;;;;;3.32;100.00;102555.97;5007770;28;20075;-81
2023/01/03 07:45:38;;;;;;;0.20;0.20;;;;;;;3.67;100.00;102549.97;5019742;28;20044;-82
2023/01/03 07:48:04;;;;;;;0.20;0.20;;;;;;;3.52;100.00;102543.19;5021682;28;20044;-83
2023/01/03 07:50:29;;;;;;;0.20;0.20;;;;;;;3.48;100.00;102568.06;5014063;28;20037;-83
2023/01/03 07:52:54;;;;;;;0.20;0.20;;;;;;;3.57;100.00;102564.34;5001528;28;20065;-80
2023/01/03 07:55:20;;;;;;;0.20;0.20;;;;;;;3.65;100.00;102556.19;4999894;28;20056;-84
2023/01/03 07:57:45;;;;;;;0.20;0.20;;;;;;;3.75;100.00;102579.88;5018111;28;20057;-84
2023/01/03 08:00:11;;;;;;;0.20;0.20;;;;;;;3.97;100.00;102559.94;5015006;28;20033;-83
2023/01/03 08:02:36;;;;;;;0.20;0.20;;;;;;;4.09;100.00;102565.00;5001944;28;20095;-81
2023/01/03 08:05:01;;;;;;;0.13;0.13;;;;;;;3.81;100.00;102549.66;5019135;28;20068;-83
2023/01/03 08:07:26;;;;;;;0.20;0.20;;;;;;;3.98;100.00;102564.34;5018089;28;20029;-78
2023/01/03 08:15:20;;;;;;;0.20;0.20;;;;;;;4.20;100.00;102567.41;5018642;28;20045;-82
2023/01/03 08:17:46;;;;;;;0.20;0.20;;;;;;;4.15;100.00;102583.44;4998569;28;20037;-86
2023/01/03 08:20:11;;;;;;;0.20;0.20;;;;;;;3.98;100.00;102572.31;4992866;28;20036;-79
2023/01/03 08:22:36;;;;;;;0.20;0.20;;;;;;;4.16;100.00;102579.88;5007502;28;20034;-85
2023/01/03 08:25:02;;;;;;;0.20;0.20;;;;;;;3.83;100.00;102565.56;5017089;28;20029;-77
2023/01/03 08:27:27;;;;;;;0.20;0.20;;;;;;;4.12;100.00;102603.91;4999450;28;20034;-84
2023/01/03 08:29:52;;;;;;;0.20;0.20;;;;;;;4.12;100.00;102582.66;5012935;28;20475;-82
2023/01/03 08:32:18;;;;;;;0.20;0.20;;;;;;;4.17;100.00;102616.19;5000862;28;20133;-81
2023/01/03 08:34:47;;;;;;;0.20;0.20;;;;;;;4.22;100.00;102580.66;5001725;28;20029;-80
2023/01/03 08:37:13;;;;;;;0.20;0.20;;;;;;;4.43;100.00;102608.53;5014951;28;20087;-80
2023/01/03 08:39:47;;;;;;;0.20;0.20;;;;;;;4.15;100.00;102563.97;5016461;28;20365;-81
2023/01/03 08:42:14;;;;;;;0.15;0.15;;;;;;;4.44;100.00;102591.66;4999745;28;20030;-80
2023/01/03 08:44:40;;;;;;;0.20;0.20;;;;;;;4.61;100.00;102624.03;5002680;28;20120;-84
2023/01/03 08:47:07;;;;;;;0.10;0.10;;;;;;;4.71;100.00;102630.00;5020564;28;20124;-82
2023/01/03 08:49:32;;;;;;;0.20;0.20;;;;;;;4.63;100.00;102616.03;5017591;28;20029;-81
2023/01/03 08:51:58;;;;;;;0.10;0.10;;;;;;;4.66;100.00;102602.63;5032767;28;20376;-83
2023/01/03 08:54:23;;;;;;;0.20;0.20;;;;;;;4.81;100.00;102620.00;5007552;28;20033;-79
2023/01/03 08:56:48;;;;;;;0.20;0.20;;;;;;;5.00;100.00;102625.75;5000288;28;20550;-83
2023/01/03 08:59:14;;;;;;;0.10;0.10;;;;;;;5.09;100.00;102629.97;4998605;28;20034;-77
2023/01/03 09:01:40;;;;;;;0.20;0.20;;;;;;;5.08;100.00;102626.44;5001786;28;20069;-78
2023/01/03 09:04:05;;;;;;;0.10;0.10;;;;;;;5.21;100.00;102623.44;5012033;28;20084;-80
2023/01/03 09:06:30;;;;;;;0.20;0.20;;;;;;;5.20;100.00;102600.38;5012950;28;20479;-83
2023/01/03 09:08:56;;;;;;;0.20;0.20;;;;;;;4.98;100.00;102595.63;5013957;28;20033;-78
2023/01/03 09:11:21;;;;;;;0.15;0.15;;;;;;;5.32;100.00;102613.38;4999602;28;20124;-79
2023/01/03 09:13:47;;;;;;;0.10;0.10;;;;;;;5.21;100.00;102612.78;5004545;28;20459;-85
2023/01/03 09:16:13;;;;;;;0.13;0.13;;;;;;;5.45;100.00;102627.25;5017660;28;20472;-86
2023/01/03 09:18:39;;;;;;;0.17;0.17;;;;;;;5.63;100.00;102628.53;5016514;28;20547;-79
2023/01/03 09:21:05;;;;;;;0.10;0.10;;;;;;;5.43;100.00;102610.41;5012611;28;20038;-82
2023/01/03 09:23:32;;;;;;;0.17;0.17;;;;;;;5.63;100.00;102616.97;4998731;28;20446;-83
2023/01/03 09:25:57;;;;;;;0.10;0.10;;;;;;;5.35;100.00;102617.75;5003455;28;20033;-83
2023/01/03 09:28:23;;;;;;;0.20;0.20;;;;;;;5.46;100.00;102646.75;5013453;28;20462;-81
2023/01/03 09:30:48;;;;;;;0.20;0.20;;;;;;;5.58;100.00;102641.09;5021371;28;20056;-85
2023/01/03 09:33:14;;;;;;;0.20;0.20;;;;;;;5.61;100.00;102625.03;5014366;28;20037;-84
2023/01/03 09:35:39;;;;;;;0.10;0.10;;;;;;;5.39;100.00;102614.06;5024338;28;20033;-82
2023/01/03 09:38:05;;;;;;;0.20;0.20;;;;;;;5.55;100.00;102654.50;5001278;28;20034;-78
2023/01/03 09:40:34;;;;;;;0.15;0.15;;;;;;;5.53;100.00;102635.91;4994085;28;20061;-86
2023/01/03 09:43:14;;;;;;;0.15;0.15;;;;;;;5.41;100.00;102622.91;4998424;28;20464;-83
2023/01/03 09:45:49;;;;;;;0.20;0.20;;;;;;;5.68;100.00;102639.03;5020835;28;20029;-80
2023/01/03 09:48:16;;;;;;;0.10;0.10;;;;;;;5.61;100.00;102637.47;5012417;28;20099;-84
2023/01/03 09:50:43;;;;;;;0.10;0.10;;;;;;;5.68;100.00;102631.03;5012119;28;20511;-79
2023/01/03 10:05:15;;;;;;;0.20;0.20;;;;;;;5.88;100.00;102613.59;5017678;28;20040;-83
2023/01/03 10:08:17;;;;;;;0.10;0.10;;;;;;;6.00;100.00;102630.13;5014375;28;20056;-77
2023/01/03 10:10:55;;;;;;;0.20;0.20;;;;;;;5.65;100.00;102593.81;5019694;28;20040;-77
2023/01/03 10:13:45;;;;;;;0.20;0.20;;;;;;;5.80;100.00;102619.16;5018810;28;20083;-77
2023/01/03 10:16:32;;;;;;;0.20;0.20;;;;;;;5.90;100.00;102638.41;5017753;28;20029;-80
2023/01/03 10:19:34;;;;;;;0.10;0.10;;;;;;;5.89;100.00;102640.22;5016074;28;20403;-80
2023/01/03 10:22:18;;;;;;;0.10;0.10;;;;;;;5.64;100.00;102606.28;5024123;28;20037;-79
2023/01/03 10:24:45;;;;;;;0.17;0.17;;;;;;;5.89;100.00;102620.66;4995996;28;20036;-80
2023/01/03 10:27:20;;;;;;;0.10;0.10;;;;;;;5.89;100.00;102621.56;5017978;28;20153;-81
2023/01/03 10:29:47;;;;;;;0.10;0.10;;;;;;;5.92;100.00;102605.47;5001231;28;20481;-82
2023/01/03 10:32:50;;;;;;;0.13;0.13;;;;;;;6.18;100.00;102638.53;5005913;28;20029;-80
2023/01/03 10:35:19;;;;;;;0.20;0.20;;;;;;;6.05;100.00;102606.00;5022429;28;20064;-79
2023/01/03 10:37:44;;;;;;;0.20;0.20;;;;;;;6.35;100.00;102616.66;5014622;28;20033;-79
2023/01/03 10:40:11;;;;;;;0.10;0.10;;;;;;;6.26;100.00;102600.94;5004246;28;20554;-78
2023/01/03 10:42:37;;;;;;;0.20;0.20;;;;;;;6.33;100.00;102617.63;5038427;28;20065;-82
2023/01/03 10:45:14;;;;;;;0.10;0.10;;;;;;;6.39;100.00;102612.09;5015996;28;20322;-81
2023/01/03 10:47:40;;;;;;;0.10;0.10;;;;;;;6.42;100.00;102602.19;5004479;28;20029;-79
2023/01/03 10:50:07;;;;;;;0.20;0.20;;;;;;;6.39;100.00;102598.75;5005837;28;20030;-79
2023/01/03 10:52:40;;;;;;;0.10;0.10;;;;;;;6.51;100.00;102592.13;5006186;28;20022;-77
2023/01/03 10:55:16;;;;;;;0.20;0.20;;;;;;;6.62;100.00;102613.13;5018301;28;20076;-78
2023/01/03 10:58:03;;;;;;;0.10;0.10;;;;;;;6.46;100.00;102616.31;5019517;28;20025;-77
2023/01/03 11:00:36;;;;;;;0.10;0.10;;;;;;;6.62;100.00;102613.13;5021717;28;20036;-81
2023/01/03 11:03:11;;;;;;;0.10;0.10;;;;;;;6.90;100.00;102603.28;5020832;28;20037;-78
2023/01/03 11:05:37;;;;;;;0.20;0.20;;;;;;;6.59;100.00;102585.63;5008785;28;20037;-77
2023/01/03 11:08:04;;;;;;;0.10;0.10;;;;;;;6.79;100.00;102615.25;5010161;28;20029;-78
2023/01/03 11:10:37;;;;;;;0.20;0.20;;;;;;;6.72;100.00;102583.41;5029259;28;20032;-77
2023/01/03 11:13:23;;;;;;;0.10;0.10;;;;;;;6.80;100.00;102593.81;5036191;28;22453;-80
2023/01/03 11:15:56;;;;;;;0.10;0.10;;;;;;;6.78;100.00;102610.84;5018763;28;20048;-78
2023/01/03 11:18:22;;;;;;;0.10;0.10;;;;;;;6.65;100.00;102581.00;5008608;28;20022;-75
2023/01/03 11:21:13;;;;;;;0.10;0.10;;;;;;;6.66;100.00;102590.75;5023479;28;20041;-77
2023/01/03 11:23:53;;;;;;;0.10;0.10;;;;;;;6.90;100.00;102605.06;5021443;28;20022;-79
2023/01/03 11:26:32;;;;;;;0.10;0.10;;;;;;;6.86;100.00;102582.94;5018147;28;20065;-82
2023/01/03 11:29:16;;;;;;;0.10;0.10;;;;;;;7.04;100.00;102601.94;5012713;28;20041;-80
2023/01/03 11:31:59;;;;;;;0.10;0.10;;;;;;;6.85;100.00;102588.34;5012605;28;20624;-76
2023/01/03 11:34:45;;;;;;;0.10;0.10;;;;;;;6.84;100.00;102603.50;5018944;28;20393;-77
2023/01/03 11:37:36;;;;;;;0.10;0.10;;;;;;;6.88;100.00;102588.25;5017220;28;20030;-75
2023/01/03 11:40:32;;;;;;;0.10;0.10;;;;;;;6.98;100.00;102594.16;5017679;28;20040;-80
2023/01/03 11:43:04;;;;;;;0.10;0.10;;;;;;;6.72;100.00;102577.22;4997299;28;20069;-79
2023/01/03 11:45:58;;;;;;;0.10;0.10;;;;;;;6.85;100.00;102567.00;5018348;28;20026;-77
2023/01/03 11:48:37;;;;;;;0.10;0.10;;;;;;;6.84;100.00;102574.13;5035358;28;20045;-77
2023/01/03 11:51:07;;;;;;;0.10;0.10;;;;;;;6.98;100.00;102578.97;5021074;28;20061;-78
2023/01/03 11:53:38;;;;;;;0.10;0.10;;;;;;;6.91;100.00;102580.09;5016055;28;20021;-78
2023/01/03 11:56:18;;;;;;;0.10;0.10;;;;;;;7.24;100.00;102579.84;5003588;28;20120;-81
2023/01/03 11:59:02;;;;;;;0.10;0.10;;;;;;;7.05;100.00;102571.63;5014027;28;20506;-77
2023/01/03 12:01:35;;;;;;;;;;;;;;;7.15;100.00;102581.06;5019837;28;20025;-78
2023/01/03 12:04:23;;;;;;;0.10;0.10;;;;;;;7.06;100.00;102570.69;5018040;28;19983;-76
2023/01/03 12:07:14;;;;;;;0.10;0.10;;;;;;;6.77;100.00;102545.88;5015904;28;20021;-80
2023/01/03 12:09:53;;;;;;;0.20;0.20;;;;;;;6.64;100.00;102529.41;5025566;28;20025;-80
2023/01/03 12:12:26;;;;;;;0.10;0.10;;;;;;;6.83;100.00;102552.81;5015482;28;20017;-82
2023/01/03 12:14:53;;;;;;;0.10;0.10;;;;;;;6.85;100.00;102562.50;5012342;28;20052;-80
2023/01/03 12:17:42;;;;;;;0.10;0.10;;;;;;;6.66;100.00;102534.72;5019409;28;20034;-78
2023/01/03 12:20:19;;;;;;;0.17;0.17;;;;;;;6.98;100.00;102549.59;5025512;28;20021;-77
2023/01/03 12:22:51;;;;;;;0.10;0.10;;;;;;;6.77;100.00;102521.84;5010780;28;20153;-76
2023/01/03 12:25:26;;;;;;;0.10;0.10;;;;;;;6.72;100.00;102518.50;5023219;28;20480;-78
2023/01/03 12:28:09;;;;;;;0.10;0.10;;;;;;;7.03;100.00;102557.44;5019292;28;20038;-77
2023/01/03 12:30:54;;;;;;;0.10;0.10;;;;;;;6.96;100.00;102545.25;5023213;28;20030;-77
2023/01/03 12:33:39;;;;;;;0.10;0.10;;;;;;;7.00;100.00;102546.91;5016274;28;20112;-79
2023/01/03 12:36:39;;;;;;;0.17;0.17;;;;;;;7.11;100.00;102552.72;5020726;28;20043;-77
2023/01/03 12:39:41;;;;;;;0.10;0.10;;;;;;;7.36;100.00;102549.16;5010537;28;20044;-78
2023/01/03 12:42:30;;;;;;;0.20;0.20;;;;;;;7.78;100.00;102548.47;5010859;28;20089;-83
2023/01/03 12:45:03;;;;;;;0.10;0.10;;;;;;;7.79;100.00;102533.28;5008963;28;20065;-81
2023/01/03 12:47:53;;;;;;;0.10;0.10;;;;;;;9.23;100.00;102553.25;5018316;28;20033;-81
2023/01/03 12:50:40;;;;;;;0.10;0.10;;;;;;;9.04;100.00;102543.34;5013268;28;20030;-81